Terminal Aerodrome Forecast
Issued by NWS

Current Version | Previous Version | Text Only | Print | Product List | Glossary On
Versions: 1 2 3 4 5 6 7 8 9 10 11 12
000
FTUS42 KTAE 260500
TAFECP
TAF
KECP 260520Z 2606/2706 00000KT P6SM SKC
     FM261400 33005KT P6SM SKC
     FM262000 27007KT P6SM SKC
     FM270100 00000KT P6SM SKC=

USA.gov is the U.S. government's official web portal to all federal, state and local government web resources and services.